createdAt,value
2022-07-31T04:46:00.258Z,67.43
2022-07-31T04:47:01.229Z,65.12
2022-07-31T04:48:01.239Z,66.13
2022-07-31T04:49:01.269Z,67.03
2022-07-31T04:50:01.196Z,67.23
2022-07-31T04:51:01.205Z,64.61
2022-07-31T04:52:01.490Z,65.79
2022-07-31T04:53:01.164Z,66.19
2022-07-31T04:54:01.151Z,66.50
2022-07-31T04:55:01.165Z,67.50
2022-07-31T04:56:01.129Z,66.70
2022-07-31T04:57:01.130Z,67.74
2022-07-31T04:58:01.108Z,67.23
2022-07-31T04:59:01.109Z,65.32
2022-07-31T05:00:01.580Z,66.50
2022-07-31T05:01:01.082Z,64.58
2022-07-31T05:02:01.286Z,64.58
2022-07-31T05:03:01.064Z,64.07
2022-07-31T05:04:01.041Z,63.65
2022-07-31T05:05:01.060Z,63.54
2022-07-31T05:06:01.021Z,63.54
2022-07-31T05:07:01.012Z,63.45
2022-07-31T05:08:01.010Z,63.04
2022-07-31T05:09:04.326Z,62.94
2022-07-31T05:10:01.008Z,62.41
2022-07-31T05:11:00.975Z,61.70
2022-07-31T05:12:01.315Z,62.41
2022-07-31T05:13:00.944Z,61.70
2022-07-31T05:14:00.929Z,62.41
2022-07-31T05:15:00.941Z,61.60
2022-07-31T05:16:00.973Z,62.30
2022-07-31T05:17:00.957Z,62.01
2022-07-31T05:18:00.903Z,62.10
2022-07-31T05:19:00.927Z,62.41
2022-07-31T05:20:00.891Z,63.11
2022-07-31T05:21:00.860Z,62.81
2022-07-31T05:22:03.745Z,62.81
2022-07-31T05:23:00.832Z,63.79
2022-07-31T05:24:00.832Z,62.98
2022-07-31T05:25:00.831Z,62.51
2022-07-31T05:26:00.807Z,62.98
2022-07-31T05:27:00.793Z,62.68
2022-07-31T05:28:00.784Z,63.08
2022-07-31T05:29:00.766Z,62.48
2022-07-31T05:30:00.778Z,64.19
2022-07-31T05:31:00.748Z,62.07
2022-07-31T05:32:01.301Z,63.39
2022-07-31T05:33:00.724Z,62.27
2022-07-31T05:34:00.718Z,63.08
2022-07-31T05:35:00.722Z,63.08
2022-07-31T05:36:00.700Z,62.78
2022-07-31T05:37:00.676Z,62.07
2022-07-31T05:38:00.682Z,62.48
2022-07-31T05:39:00.660Z,62.78
2022-07-31T05:40:00.666Z,62.07
2022-07-31T05:41:00.650Z,62.88
2022-07-31T05:42:00.886Z,62.88
2022-07-31T05:43:00.621Z,62.35
2022-07-31T05:44:00.607Z,62.88
2022-07-31T05:45:00.606Z,62.65
2022-07-31T05:46:00.592Z,63.56
2022-07-31T05:47:39.781Z,62.45
2022-07-31T05:48:32.216Z,62.65
2022-07-31T05:49:32.244Z,62.85
2022-07-31T05:50:32.217Z,63.56
2022-07-31T05:51:32.211Z,61.85
2022-07-31T05:52:32.224Z,61.44
2022-07-31T05:53:32.162Z,61.94
2022-07-31T05:54:32.200Z,63.15
2022-07-31T05:55:32.237Z,60.81
2022-07-31T05:56:32.132Z,60.91
2022-07-31T05:57:33.250Z,60.71
2022-07-31T05:58:32.105Z,62.52
2022-07-31T05:59:32.087Z,61.21
2022-07-31T06:00:32.336Z,62.59
2022-07-31T06:01:32.154Z,61.18
2022-07-31T06:02:32.070Z,60.48
2022-07-31T06:03:35.768Z,60.08
2022-07-31T06:04:32.046Z,60.38
2022-07-31T06:05:32.042Z,61.79
2022-07-31T06:06:32.030Z,60.28
2022-07-31T06:07:32.011Z,59.78
2022-07-31T06:08:32.005Z,60.08
2022-07-31T06:09:31.989Z,59.55
2022-07-31T06:10:32.033Z,61.55
2022-07-31T06:11:31.969Z,59.55
2022-07-31T06:12:31.955Z,59.75
2022-07-31T06:13:31.947Z,59.14
2022-07-31T06:14:31.967Z,59.45
2022-07-31T06:15:36.068Z,58.84
2022-07-31T06:16:31.917Z,58.51
2022-07-31T06:17:44.243Z,58.72
2022-07-31T06:18:31.902Z,59.22
2022-07-31T06:19:31.880Z,58.69
2022-07-31T06:20:31.894Z,58.79
2022-07-31T06:21:31.858Z,58.59
2022-07-31T06:22:31.850Z,57.98
2022-07-31T06:23:32.357Z,58.26
2022-07-31T06:24:31.835Z,58.76
2022-07-31T06:25:35.070Z,58.46
2022-07-31T06:26:31.814Z,58.29
2022-07-31T06:27:33.797Z,58.49
2022-07-31T06:28:47.498Z,58.49
2022-07-31T06:29:41.204Z,58.76
2022-07-31T06:30:31.784Z,58.56
2022-07-31T06:31:31.750Z,59.06
2022-07-31T06:32:31.745Z,59.26
2022-07-31T06:33:37.798Z,58.09
2022-07-31T06:34:31.729Z,58.69
2022-07-31T06:35:31.724Z,58.99
2022-07-31T06:36:31.705Z,59.77
2022-07-31T06:37:31.683Z,57.96
2022-07-31T06:38:31.677Z,58.36
2022-07-31T06:39:54.621Z,57.76
2022-07-31T06:40:31.679Z,58.56
2022-07-31T06:41:31.648Z,58.63
2022-07-31T06:42:31.635Z,57.63
2022-07-31T06:43:31.620Z,57.93
2022-07-31T06:44:31.614Z,57.80
2022-07-31T06:45:51.165Z,57.10
2022-07-31T06:46:31.600Z,57.73
2022-07-31T06:47:31.578Z,57.10
2022-07-31T06:48:31.578Z,57.73
2022-07-31T06:49:31.618Z,58.11
2022-07-31T06:50:31.560Z,58.11
2022-07-31T06:51:32.289Z,58.48
2022-07-31T06:52:31.535Z,56.87
2022-07-31T06:53:31.511Z,57.48
2022-07-31T06:54:31.509Z,57.48
2022-07-31T06:55:31.507Z,57.07
2022-07-31T06:56:31.485Z,57.28
2022-07-31T06:57:31.498Z,57.24
2022-07-31T06:58:31.463Z,57.28
2022-07-31T06:59:39.753Z,58.37
2022-07-31T07:00:31.459Z,57.17
2022-07-31T07:01:31.507Z,58.00
2022-07-31T07:02:31.418Z,57.98
2022-07-31T07:03:31.408Z,58.40
2022-07-31T07:04:56.276Z,59.00
2022-07-31T07:05:31.405Z,60.11
2022-07-31T07:06:31.391Z,59.41
2022-07-31T07:07:31.805Z,59.41
2022-07-31T07:08:31.397Z,59.94
2022-07-31T07:09:31.334Z,60.84
2022-07-31T07:10:31.351Z,61.74
2022-07-31T07:11:31.310Z,62.04
2022-07-31T07:12:31.304Z,62.87
2022-07-31T07:13:46.187Z,65.08
2022-07-31T07:14:31.299Z,64.78
2022-07-31T07:15:31.289Z,64.48
2022-07-31T07:16:31.307Z,64.48
2022-07-31T07:17:31.278Z,66.08
2022-07-31T07:18:31.312Z,66.28
2022-07-31T07:19:31.234Z,66.95
2022-07-31T07:20:31.255Z,63.87
2022-07-31T07:21:31.206Z,66.08
2022-07-31T07:22:32.116Z,67.76
2022-07-31T07:23:31.186Z,65.55
2022-07-31T07:24:31.182Z,65.45
2022-07-31T07:25:31.178Z,64.25
2022-07-31T07:26:31.154Z,64.45
2022-07-31T07:27:31.139Z,63.84
2022-07-31T07:28:31.595Z,65.42
2022-07-31T07:29:31.114Z,65.52
2022-07-31T07:30:31.160Z,66.69
2022-07-31T07:31:31.094Z,62.88
2022-07-31T07:32:31.087Z,63.31
2022-07-31T07:33:41.398Z,64.78
2022-07-31T07:34:31.125Z,63.68
2022-07-31T07:35:34.100Z,62.51
2022-07-31T07:36:31.052Z,62.31
2022-07-31T07:37:31.028Z,62.11
2022-07-31T07:38:31.024Z,63.28
2022-07-31T07:39:31.006Z,61.71
2022-07-31T07:40:31.025Z,63.89
2022-07-31T07:41:30.983Z,62.08
2022-07-31T07:42:30.983Z,62.68
2022-07-31T07:43:30.963Z,62.65
2022-07-31T07:44:30.957Z,60.92
2022-07-31T07:45:30.953Z,60.62
2022-07-31T07:46:30.938Z,62.82
2022-07-31T07:47:53.647Z,61.19
2022-07-31T07:48:30.919Z,61.09
2022-07-31T07:49:30.936Z,61.29
2022-07-31T07:50:30.908Z,61.59
2022-07-31T07:51:30.873Z,61.40
2022-07-31T07:52:30.872Z,61.16
2022-07-31T07:53:30.851Z,60.06
2022-07-31T07:54:30.846Z,60.16
2022-07-31T07:55:37.265Z,60.27
2022-07-31T07:56:30.844Z,58.04
2022-07-31T07:57:30.811Z,60.03
2022-07-31T07:58:30.802Z,57.87
2022-07-31T07:59:30.783Z,57.97
2022-07-31T08:00:30.802Z,59.66
2022-07-31T08:01:30.888Z,58.04
2022-07-31T08:02:30.756Z,57.91
2022-07-31T08:03:49.140Z,57.21
2022-07-31T08:04:30.746Z,57.01
2022-07-31T08:05:30.722Z,57.31
2022-07-31T08:06:30.748Z,57.74
2022-07-31T08:07:41.855Z,56.84
2022-07-31T08:08:30.703Z,57.74
2022-07-31T08:09:30.676Z,57.71
2022-07-31T08:10:30.671Z,56.61
2022-07-31T08:11:30.678Z,56.91
2022-07-31T08:12:30.656Z,56.51
2022-07-31T08:13:30.638Z,57.61
2022-07-31T08:14:30.631Z,56.81
2022-07-31T08:15:30.618Z,57.34
2022-07-31T08:16:30.629Z,57.54
2022-07-31T08:17:30.595Z,57.71
2022-07-31T08:18:30.589Z,57.09
2022-07-31T08:19:30.571Z,56.48
2022-07-31T08:20:30.563Z,56.46
2022-07-31T08:21:30.567Z,56.06
2022-07-31T08:22:30.552Z,55.83
2022-07-31T08:23:30.538Z,56.01
2022-07-31T08:24:30.530Z,56.01
2022-07-31T08:25:31.914Z,55.48
2022-07-31T08:26:30.521Z,55.18
2022-07-31T08:27:39.567Z,55.38
2022-07-31T08:28:30.487Z,55.51
2022-07-31T08:29:30.470Z,55.78
2022-07-31T08:30:31.053Z,55.61
2022-07-31T08:31:30.465Z,56.40
2022-07-31T08:32:30.442Z,55.88
2022-07-31T08:33:30.421Z,54.28
2022-07-31T08:34:31.267Z,54.26
2022-07-31T08:35:30.403Z,54.19
2022-07-31T08:36:30.413Z,54.13
2022-07-31T08:37:52.228Z,55.10
2022-07-31T08:38:30.382Z,52.59
2022-07-31T08:39:30.362Z,51.95
2022-07-31T08:40:30.357Z,53.27
2022-07-31T08:41:30.352Z,53.74
2022-07-31T08:42:30.334Z,52.94
2022-07-31T08:44:03.355Z,53.81
2022-07-31T08:44:30.966Z,53.02
2022-07-31T08:45:30.295Z,52.59
2022-07-31T08:46:30.310Z,54.55
2022-07-31T08:47:30.276Z,53.06
2022-07-31T08:48:30.270Z,53.93
2022-07-31T08:49:30.345Z,53.23
2022-07-31T08:50:30.239Z,52.42
2022-07-31T08:51:30.246Z,53.21
2022-07-31T08:52:30.225Z,53.41
2022-07-31T08:53:30.241Z,53.81
2022-07-31T08:54:30.204Z,53.11
2022-07-31T08:55:56.108Z,53.51
2022-07-31T08:56:30.203Z,53.28
2022-07-31T08:57:30.165Z,53.11
2022-07-31T08:58:30.179Z,53.61
2022-07-31T08:59:30.141Z,53.78
2022-07-31T09:00:30.137Z,52.49
2022-07-31T09:01:30.296Z,52.00
2022-07-31T09:02:30.115Z,50.88
2022-07-31T09:03:30.107Z,50.78
2022-07-31T09:04:30.096Z,50.16
2022-07-31T09:05:41.921Z,51.25
2022-07-31T09:06:30.094Z,51.17
2022-07-31T09:07:30.059Z,51.37
2022-07-31T09:08:30.052Z,52.24
2022-07-31T09:09:50.809Z,51.28
2022-07-31T09:10:30.033Z,51.30
2022-07-31T09:11:30.028Z,52.09
2022-07-31T09:12:31.499Z,52.09
2022-07-31T09:13:30.031Z,52.47
2022-07-31T09:14:29.986Z,52.07
2022-07-31T09:15:29.970Z,51.57
2022-07-31T09:16:30.760Z,52.14
2022-07-31T09:17:29.949Z,52.04
2022-07-31T09:18:29.943Z,51.30
2022-07-31T09:19:51.674Z,51.92
2022-07-31T09:20:29.927Z,52.42
2022-07-31T09:21:29.923Z,52.91
2022-07-31T09:22:29.909Z,52.51
2022-07-31T09:23:29.891Z,53.86
2022-07-31T09:24:29.880Z,55.23
2022-07-31T09:25:29.858Z,53.44
2022-07-31T09:26:29.869Z,53.24
2022-07-31T09:27:29.846Z,53.34
2022-07-31T09:28:29.833Z,54.93
2022-07-31T09:29:29.815Z,54.56
2022-07-31T09:30:29.818Z,54.86
2022-07-31T09:31:29.822Z,54.46
2022-07-31T09:32:29.784Z,56.35
2022-07-31T09:33:29.781Z,54.53
2022-07-31T09:34:30.915Z,54.53
2022-07-31T09:35:29.762Z,56.35
2022-07-31T09:36:29.758Z,54.06
2022-07-31T09:37:29.737Z,54.66
2022-07-31T09:38:29.721Z,54.66
2022-07-31T09:39:29.758Z,54.36
2022-07-31T09:40:29.702Z,54.28
2022-07-31T09:41:59.968Z,55.11
2022-07-31T09:42:29.683Z,54.38
2022-07-31T09:43:31.613Z,55.18
2022-07-31T09:44:29.655Z,55.26
2022-07-31T09:45:29.651Z,56.15
2022-07-31T09:46:29.652Z,54.33
2022-07-31T09:47:29.634Z,53.24
2022-07-31T09:48:29.615Z,55.13
2022-07-31T09:49:29.686Z,53.61
2022-07-31T09:50:29.596Z,53.74
2022-07-31T09:51:29.602Z,53.64
2022-07-31T09:52:29.567Z,53.94
2022-07-31T09:53:29.562Z,54.93
2022-07-31T09:54:29.551Z,55.82
2022-07-31T09:55:29.546Z,54.93
2022-07-31T09:56:29.542Z,55.23
2022-07-31T09:57:29.518Z,54.33
2022-07-31T09:58:29.508Z,54.38
2022-07-31T09:59:29.498Z,55.16
2022-07-31T10:00:29.485Z,55.46
2022-07-31T10:01:29.547Z,56.72
2022-07-31T10:02:29.662Z,55.53
2022-07-31T10:03:29.467Z,54.41
2022-07-31T10:04:29.437Z,54.50
2022-07-31T10:05:29.431Z,54.86
2022-07-31T10:06:29.439Z,54.86
2022-07-31T10:07:32.886Z,55.88
2022-07-31T10:08:29.395Z,56.38
2022-07-31T10:09:29.392Z,56.18
2022-07-31T10:10:29.375Z,56.57
2022-07-31T10:11:29.392Z,55.98
2022-07-31T10:12:29.354Z,56.15
2022-07-31T10:13:29.354Z,56.52
2022-07-31T10:14:29.336Z,54.63
2022-07-31T10:15:29.330Z,54.63
2022-07-31T10:16:29.308Z,55.13
2022-07-31T10:17:32.614Z,55.46
2022-07-31T10:18:36.437Z,55.16
2022-07-31T10:19:29.290Z,55.65
2022-07-31T10:20:29.272Z,55.95
2022-07-31T10:21:29.259Z,56.05
2022-07-31T10:22:29.258Z,56.55
2022-07-31T10:23:29.239Z,57.12
2022-07-31T10:24:29.231Z,55.26
2022-07-31T10:25:29.221Z,56.45
2022-07-31T10:26:50.720Z,55.05
2022-07-31T10:27:29.215Z,55.58
2022-07-31T10:28:29.208Z,56.68
2022-07-31T10:29:32.512Z,56.15
2022-07-31T10:30:29.159Z,55.85
2022-07-31T10:31:29.152Z,55.38
2022-07-31T10:32:29.154Z,57.10
2022-07-31T10:33:43.704Z,56.51
2022-07-31T10:34:29.123Z,56.81
2022-07-31T10:35:29.108Z,56.51
2022-07-31T10:36:29.092Z,56.18
2022-07-31T10:37:29.105Z,56.30
2022-07-31T10:38:29.071Z,56.40
2022-07-31T10:39:29.066Z,56.33
2022-07-31T10:40:29.053Z,56.13
2022-07-31T10:41:29.046Z,56.83
2022-07-31T10:42:29.042Z,56.33
2022-07-31T10:43:29.026Z,56.10
2022-07-31T10:44:29.010Z,55.71
2022-07-31T10:45:29.004Z,54.68
2022-07-31T10:46:28.989Z,55.18
2022-07-31T10:47:28.995Z,53.96
2022-07-31T10:48:28.962Z,54.93
2022-07-31T10:49:29.017Z,54.60
2022-07-31T10:50:28.948Z,51.92
2022-07-31T10:51:28.936Z,51.60
2022-07-31T10:52:28.934Z,51.57
2022-07-31T10:53:50.458Z,51.05
2022-07-31T10:54:28.903Z,49.04
2022-07-31T10:55:28.896Z,50.13
2022-07-31T10:56:28.905Z,49.46
2022-07-31T10:57:28.885Z,49.16
2022-07-31T10:58:28.856Z,49.29
2022-07-31T10:59:28.850Z,50.50
2022-07-31T11:00:29.883Z,51.92
2022-07-31T11:01:28.876Z,51.92
2022-07-31T11:02:28.838Z,51.95
2022-07-31T11:03:28.810Z,52.84
2022-07-31T11:04:28.789Z,52.81
2022-07-31T11:05:28.786Z,52.04
2022-07-31T11:06:28.774Z,52.54
2022-07-31T11:07:28.783Z,52.74
2022-07-31T11:08:28.765Z,53.51
2022-07-31T11:09:28.740Z,52.39
2022-07-31T11:10:28.725Z,52.62
2022-07-31T11:11:28.720Z,53.94
2022-07-31T11:12:28.720Z,53.74
2022-07-31T11:13:33.650Z,54.50
2022-07-31T11:14:28.690Z,52.59
2022-07-31T11:15:28.677Z,54.46
2022-07-31T11:16:28.663Z,52.17
2022-07-31T11:18:21.206Z,52.86
2022-07-31T11:18:34.385Z,53.46
2022-07-31T11:19:28.635Z,51.87
2022-07-31T11:20:28.620Z,52.42
2022-07-31T11:21:38.501Z,52.49
2022-07-31T11:22:31.665Z,52.44
2022-07-31T11:23:28.594Z,52.81
2022-07-31T11:24:28.580Z,53.53
2022-07-31T11:25:28.567Z,50.93
2022-07-31T11:26:32.734Z,50.43
2022-07-31T11:27:28.571Z,51.23
2022-07-31T11:28:28.535Z,49.51
2022-07-31T11:30:00.006Z,49.27
2022-07-31T11:30:28.517Z,49.34
2022-07-31T11:31:28.510Z,49.94
2022-07-31T11:32:28.506Z,49.17
2022-07-31T11:33:28.484Z,49.19
2022-07-31T11:34:28.467Z,49.41
2022-07-31T11:35:28.475Z,50.33
2022-07-31T11:36:28.450Z,51.05
2022-07-31T11:37:34.265Z,51.60
2022-07-31T11:38:28.437Z,53.11
2022-07-31T11:39:36.757Z,53.61
2022-07-31T11:40:28.556Z,53.44
2022-07-31T11:41:28.403Z,53.96
2022-07-31T11:42:32.093Z,54.75
2022-07-31T11:43:28.385Z,54.56
2022-07-31T11:44:28.368Z,55.05
2022-07-31T11:45:28.358Z,55.16
2022-07-31T11:46:28.353Z,55.13
2022-07-31T11:48:10.942Z,54.80
2022-07-31T11:48:28.330Z,53.78
2022-07-31T11:49:44.162Z,52.76
2022-07-31T11:50:28.312Z,52.47
2022-07-31T11:51:28.299Z,52.61
2022-07-31T11:52:30.609Z,50.36
2022-07-31T11:53:28.284Z,48.06
2022-07-31T11:54:28.267Z,45.84
2022-07-31T11:55:28.255Z,45.52
2022-07-31T11:56:28.242Z,45.76
2022-07-31T11:57:28.251Z,45.68
2022-07-31T11:58:28.230Z,48.55
2022-07-31T11:59:45.400Z,49.46
2022-07-31T12:00:30.122Z,50.76
2022-07-31T12:01:28.200Z,48.67
2022-07-31T12:02:28.237Z,49.74
2022-07-31T12:03:28.178Z,49.39
2022-07-31T12:04:28.168Z,49.76
2022-07-31T12:05:37.599Z,48.94
2022-07-31T12:06:30.929Z,48.87
2022-07-31T12:07:28.158Z,50.48
2022-07-31T12:08:28.124Z,50.40
2022-07-31T12:10:00.293Z,51.50
2022-07-31T12:10:28.109Z,52.00
2022-07-31T12:11:28.098Z,51.20
2022-07-31T12:12:28.098Z,51.97
2022-07-31T12:13:28.078Z,50.60
2022-07-31T12:14:28.065Z,50.70
2022-07-31T12:15:28.059Z,51.70
2022-07-31T12:16:28.041Z,52.34
2022-07-31T12:17:28.055Z,52.94
2022-07-31T12:18:28.025Z,52.91
2022-07-31T12:19:28.019Z,52.04
2022-07-31T12:20:35.489Z,52.34
2022-07-31T12:21:28.004Z,51.82
2022-07-31T12:22:28.003Z,52.09
2022-07-31T12:23:40.591Z,51.72
2022-07-31T12:24:27.971Z,51.95
2022-07-31T12:25:27.961Z,52.34
2022-07-31T12:26:27.955Z,52.34
2022-07-31T12:27:27.959Z,53.14
2022-07-31T12:28:27.924Z,51.82
2022-07-31T12:29:27.917Z,52.14
2022-07-31T12:30:30.123Z,53.31
2022-07-31T12:31:27.900Z,51.62
2022-07-31T12:32:27.902Z,51.72
2022-07-31T12:33:27.878Z,52.54
2022-07-31T12:34:27.864Z,52.84
2022-07-31T12:35:27.858Z,51.54
2022-07-31T12:36:27.855Z,52.14
2022-07-31T12:37:27.855Z,51.75
2022-07-31T12:38:47.611Z,51.54
2022-07-31T12:39:50.796Z,52.34
2022-07-31T12:40:27.810Z,51.97
2022-07-31T12:41:27.804Z,52.07
2022-07-31T12:42:30.446Z,51.77
2022-07-31T12:43:27.779Z,52.47
2022-07-31T12:44:27.767Z,52.56
2022-07-31T12:45:27.771Z,52.74
2022-07-31T12:46:27.747Z,52.54
2022-07-31T12:47:27.762Z,52.91
2022-07-31T12:48:27.726Z,52.39
2022-07-31T12:49:27.810Z,52.44
2022-07-31T12:50:27.708Z,52.14
2022-07-31T12:51:44.634Z,51.67
2022-07-31T12:52:27.703Z,52.17
2022-07-31T12:53:27.688Z,52.66
2022-07-31T12:54:27.669Z,52.56
2022-07-31T12:55:27.667Z,51.87
2022-07-31T12:56:27.648Z,52.59
2022-07-31T12:57:27.638Z,52.37
2022-07-31T12:58:27.637Z,50.95
2022-07-31T12:59:27.619Z,50.65
2022-07-31T13:00:27.607Z,52.19
2022-07-31T13:01:27.639Z,51.07
2022-07-31T13:02:27.589Z,51.87
2022-07-31T13:03:39.059Z,53.66
2022-07-31T13:04:27.572Z,52.54
2022-07-31T13:05:27.580Z,52.17
2022-07-31T13:06:27.551Z,52.51
2022-07-31T13:07:27.551Z,53.80
2022-07-31T13:08:27.550Z,54.30
2022-07-31T13:09:27.521Z,54.93
2022-07-31T13:10:32.096Z,54.25
2022-07-31T13:11:27.513Z,54.60
2022-07-31T13:12:27.492Z,56.59
2022-07-31T13:13:27.500Z,55.57
2022-07-31T13:14:27.463Z,56.17
2022-07-31T13:15:27.463Z,56.04
2022-07-31T13:16:27.449Z,55.85
2022-07-31T13:17:27.442Z,55.57
2022-07-31T13:18:27.445Z,55.57
2022-07-31T13:19:27.418Z,55.97
2022-07-31T13:20:27.420Z,56.59
2022-07-31T13:21:27.406Z,56.77
2022-07-31T13:22:27.389Z,56.07
2022-07-31T13:23:27.398Z,56.59
2022-07-31T13:24:27.367Z,57.22
2022-07-31T13:25:27.374Z,57.42
2022-07-31T13:26:27.342Z,57.62
2022-07-31T13:27:27.340Z,57.92
2022-07-31T13:28:27.339Z,57.64
2022-07-31T13:29:27.330Z,57.52
2022-07-31T13:30:27.307Z,57.39
2022-07-31T13:31:27.317Z,56.82
2022-07-31T13:32:27.280Z,57.02
2022-07-31T13:33:27.289Z,57.92
2022-07-31T13:34:27.259Z,57.75
2022-07-31T13:35:29.007Z,57.75
2022-07-31T13:36:27.237Z,58.04
2022-07-31T13:37:27.237Z,57.71
2022-07-31T13:38:27.228Z,58.58
2022-07-31T13:39:27.214Z,56.59
2022-07-31T13:40:27.192Z,56.96
2022-07-31T13:41:27.196Z,57.04
2022-07-31T13:42:29.740Z,56.12
2022-07-31T13:43:27.184Z,55.12
2022-07-31T13:44:27.153Z,54.85
2022-07-31T13:45:27.147Z,55.74
2022-07-31T13:46:27.129Z,55.65
2022-07-31T13:47:27.123Z,55.74
2022-07-31T13:48:27.136Z,55.52
2022-07-31T13:49:27.171Z,55.52
2022-07-31T13:50:27.093Z,55.40
2022-07-31T13:51:28.969Z,54.53
2022-07-31T13:52:27.072Z,55.12
2022-07-31T13:53:27.074Z,56.04
2022-07-31T13:54:27.048Z,56.14
2022-07-31T13:55:27.035Z,57.04
2022-07-31T13:56:39.113Z,55.85
2022-07-31T13:57:27.204Z,55.77
2022-07-31T13:58:27.026Z,56.07
2022-07-31T13:59:26.996Z,58.06
2022-07-31T14:00:26.990Z,57.09
2022-07-31T14:01:27.019Z,56.62
2022-07-31T14:02:27.005Z,57.64
2022-07-31T14:03:26.964Z,57.82
2022-07-31T14:04:28.589Z,58.11
2022-07-31T14:05:26.942Z,58.01
2022-07-31T14:06:26.923Z,58.11
2022-07-31T14:07:45.715Z,58.39
2022-07-31T14:08:32.661Z,58.41
2022-07-31T14:09:26.894Z,58.81
2022-07-31T14:10:26.879Z,59.21
2022-07-31T14:11:26.865Z,59.11
2022-07-31T14:12:26.870Z,59.04
2022-07-31T14:13:26.860Z,59.04
2022-07-31T14:14:26.840Z,59.27
2022-07-31T14:15:30.217Z,60.06
2022-07-31T14:16:26.817Z,59.64
2022-07-31T14:17:26.803Z,59.23
2022-07-31T14:18:26.796Z,61.00
2022-07-31T14:19:26.801Z,59.51
2022-07-31T14:20:26.774Z,59.51
2022-07-31T14:21:26.756Z,59.64
2022-07-31T14:22:26.757Z,61.40
2022-07-31T14:23:34.362Z,60.00
2022-07-31T14:24:26.755Z,59.44
2022-07-31T14:25:26.823Z,60.89
2022-07-31T14:26:26.742Z,61.49
2022-07-31T14:27:26.702Z,62.38
2022-07-31T14:28:26.692Z,61.79
2022-07-31T14:29:26.694Z,61.88
2022-07-31T14:30:26.667Z,62.05
2022-07-31T14:31:26.655Z,62.05
2022-07-31T14:32:26.650Z,60.53
2022-07-31T14:33:26.635Z,60.24
2022-07-31T14:34:29.755Z,61.20
2022-07-31T14:35:26.616Z,59.68
2022-07-31T14:36:26.604Z,59.11
2022-07-31T14:37:26.591Z,59.41
2022-07-31T14:38:27.237Z,60.21
2022-07-31T14:39:26.584Z,59.58
2022-07-31T14:40:26.565Z,58.69
2022-07-31T14:41:26.544Z,59.48
2022-07-31T14:42:26.968Z,59.12
2022-07-31T14:43:26.555Z,56.81
2022-07-31T14:44:28.914Z,56.59
2022-07-31T14:45:26.504Z,55.79
2022-07-31T14:46:26.499Z,55.99
2022-07-31T14:47:26.483Z,57.17
2022-07-31T14:48:26.479Z,58.39
2022-07-31T14:49:26.551Z,58.98
2022-07-31T14:50:26.464Z,58.56
2022-07-31T14:51:26.442Z,58.86
2022-07-31T14:52:26.695Z,58.06
2022-07-31T14:53:26.426Z,59.45
2022-07-31T14:54:26.436Z,59.85
2022-07-31T14:55:26.428Z,59.05
2022-07-31T14:56:45.462Z,59.48
2022-07-31T14:57:26.391Z,58.95
2022-07-31T14:58:26.376Z,58.36
2022-07-31T14:59:26.380Z,58.73
2022-07-31T15:00:26.362Z,57.60
2022-07-31T15:01:26.774Z,56.74
2022-07-31T15:02:26.343Z,57.43
2022-07-31T15:03:26.328Z,57.60
2022-07-31T15:04:26.330Z,57.21
2022-07-31T15:06:39.649Z,56.81
2022-07-31T15:07:19.011Z,57.70
2022-07-31T15:07:43.943Z,58.30
2022-07-31T15:08:26.283Z,57.81
2022-07-31T15:09:26.278Z,58.13
2022-07-31T15:10:26.261Z,58.75
2022-07-31T15:11:59.305Z,58.62
2022-07-31T15:12:26.248Z,58.92
2022-07-31T15:13:26.226Z,58.03
2022-07-31T15:14:26.232Z,58.06
2022-07-31T15:15:26.203Z,59.82
2022-07-31T15:16:26.198Z,58.83
2022-07-31T15:17:26.183Z,59.45
2022-07-31T15:18:26.181Z,60.25
2022-07-31T15:19:26.179Z,59.35
2022-07-31T15:20:28.803Z,59.38
2022-07-31T15:21:26.147Z,59.88
2022-07-31T15:22:26.138Z,59.51
2022-07-31T15:23:26.129Z,59.58
2022-07-31T15:24:26.144Z,59.58
2022-07-31T15:25:26.104Z,59.78
2022-07-31T15:26:26.098Z,59.75
2022-07-31T15:27:26.084Z,58.45
2022-07-31T15:28:26.078Z,58.16
2022-07-31T15:29:26.066Z,58.16
2022-07-31T15:30:26.089Z,58.75
2022-07-31T15:31:26.045Z,58.45
2022-07-31T15:32:26.639Z,58.86
2022-07-31T15:33:26.028Z,58.75
2022-07-31T15:34:26.025Z,58.95
2022-07-31T15:35:26.023Z,59.08
2022-07-31T15:36:26.007Z,58.88
2022-07-31T15:37:25.988Z,59.15
2022-07-31T15:38:25.991Z,58.95
2022-07-31T15:39:25.968Z,58.92
2022-07-31T15:40:25.973Z,58.83
2022-07-31T15:41:25.945Z,58.53
2022-07-31T15:42:26.030Z,58.23
2022-07-31T15:43:25.927Z,58.75
2022-07-31T15:44:25.917Z,58.56
2022-07-31T15:45:25.921Z,58.75
2022-07-31T15:46:25.901Z,59.25
2022-07-31T15:47:25.914Z,59.65
2022-07-31T15:48:25.878Z,58.86
2022-07-31T15:49:25.986Z,59.15
2022-07-31T15:50:25.870Z,59.35
2022-07-31T15:51:25.845Z,59.75
2022-07-31T15:52:25.901Z,59.25
2022-07-31T15:53:29.819Z,59.55
2022-07-31T15:54:25.827Z,59.25
2022-07-31T15:55:25.818Z,58.73
2022-07-31T15:56:25.795Z,60.52
2022-07-31T15:57:25.786Z,59.12
2022-07-31T15:58:25.775Z,58.83
2022-07-31T15:59:25.765Z,60.22
2022-07-31T16:00:25.793Z,59.03
2022-07-31T16:01:25.764Z,59.82
2022-07-31T16:02:25.766Z,58.86
2022-07-31T16:03:25.721Z,59.35
2022-07-31T16:04:25.725Z,59.35
2022-07-31T16:05:36.942Z,59.25
2022-07-31T16:06:28.010Z,59.39
2022-07-31T16:08:31.293Z,57.87
2022-07-31T16:08:39.298Z,56.93
2022-07-31T16:09:25.661Z,55.74
2022-07-31T16:10:25.678Z,55.81
2022-07-31T16:12:04.904Z,55.51
2022-07-31T16:12:25.718Z,55.58
2022-07-31T16:13:25.621Z,55.51
2022-07-31T16:14:25.615Z,56.11
2022-07-31T16:15:26.418Z,56.53
2022-07-31T16:16:25.596Z,57.62
2022-07-31T16:17:25.581Z,58.12
2022-07-31T16:18:25.581Z,58.15
2022-07-31T16:19:25.561Z,58.67
2022-07-31T16:20:27.154Z,59.27
2022-07-31T16:21:25.546Z,61.45
2022-07-31T16:22:25.541Z,61.25
2022-07-31T16:23:25.522Z,59.19
2022-07-31T16:24:25.520Z,59.69
2022-07-31T16:25:25.517Z,58.57
2022-07-31T16:26:25.497Z,58.30
2022-07-31T16:27:25.484Z,58.87
2022-07-31T16:28:25.481Z,59.36
2022-07-31T16:29:59.274Z,58.47
2022-07-31T16:30:25.477Z,59.07
2022-07-31T16:31:30.013Z,59.49
2022-07-31T16:32:25.447Z,59.59
2022-07-31T16:33:25.426Z,61.08
2022-07-31T16:34:25.418Z,59.32
2022-07-31T16:35:25.421Z,59.72
2022-07-31T16:36:25.402Z,60.35
2022-07-31T16:37:51.090Z,60.94
2022-07-31T16:38:25.383Z,60.94
2022-07-31T16:39:25.366Z,61.74
2022-07-31T16:40:30.417Z,61.14
2022-07-31T16:41:25.354Z,61.44
2022-07-31T16:42:25.345Z,60.97
2022-07-31T16:43:47.872Z,61.67
2022-07-31T16:44:25.325Z,61.96
2022-07-31T16:45:25.325Z,61.37
2022-07-31T16:46:25.302Z,61.57
2022-07-31T16:47:50.608Z,62.37
2022-07-31T16:48:25.298Z,61.96
2022-07-31T16:49:35.933Z,63.36
2022-07-31T16:50:25.279Z,61.77
2022-07-31T16:51:25.243Z,61.44
2022-07-31T16:52:25.240Z,61.34
2022-07-31T16:54:10.366Z,61.44
2022-07-31T16:54:25.225Z,61.34
2022-07-31T16:55:46.239Z,61.41
2022-07-31T16:56:25.206Z,60.91
2022-07-31T16:57:25.180Z,61.71
2022-07-31T16:58:25.174Z,61.80
2022-07-31T16:59:25.164Z,61.01
2022-07-31T17:00:25.183Z,61.83
2022-07-31T17:01:56.680Z,61.14
2022-07-31T17:02:25.143Z,61.34
2022-07-31T17:03:58.849Z,61.14
2022-07-31T17:04:25.128Z,61.14
2022-07-31T17:05:25.103Z,61.44
2022-07-31T17:06:36.011Z,61.24
2022-07-31T17:07:25.091Z,61.11
2022-07-31T17:08:25.073Z,60.94
2022-07-31T17:09:25.054Z,61.54
2022-07-31T17:10:25.051Z,61.44
2022-07-31T17:11:25.051Z,62.93
2022-07-31T17:12:25.029Z,62.43
2022-07-31T17:13:25.014Z,62.37
2022-07-31T17:14:25.008Z,62.86
2022-07-31T17:15:24.992Z,64.18
2022-07-31T17:16:25.001Z,65.71
2022-07-31T17:17:24.971Z,67.03
2022-07-31T17:18:25.277Z,68.37
2022-07-31T17:19:41.501Z,69.16
2022-07-31T17:20:24.954Z,69.99
2022-07-31T17:21:24.945Z,70.19
2022-07-31T17:22:24.934Z,70.49
2022-07-31T17:23:42.954Z,71.02
2022-07-31T17:24:24.907Z,71.52
2022-07-31T17:25:24.888Z,71.92
2022-07-31T17:26:24.891Z,71.82
2022-07-31T17:27:24.863Z,72.55
2022-07-31T17:28:24.860Z,72.95
2022-07-31T17:29:24.843Z,73.45
2022-07-31T17:30:24.835Z,74.68
2022-07-31T17:31:24.834Z,75.72
2022-07-31T17:32:24.823Z,76.12
2022-07-31T17:33:59.715Z,76.65
2022-07-31T17:34:24.800Z,77.15
2022-07-31T17:35:24.778Z,78.66
2022-07-31T17:36:24.786Z,80.19
2022-07-31T17:37:24.765Z,83.13
2022-07-31T17:38:24.748Z,84.23